Terminal Aerodrome Forecast
Issued by NWS Northern Indiana

Home | Current Version | Previous Version | Text Only | Print | Product List | Glossary On
Versions: 1 2 3 4 5 6 7 8 9 10 11 12 13 14 15 16 17 18 19
000
FTUS43 KIWX 241727
TAFFWA
TAF
KFWA 241727Z 2418/2518 20012G20KT P6SM -SHRA VCTS BKN035CB
      TEMPO 2419/2423 BKN020CB
     FM250200 20007KT P6SM SCT030 BKN090
     FM251200 23008KT P6SM BKN040=

USA.gov is the U.S. government's official web portal to all federal, state and local government web resources and services.